»·PEaware :: N9633L MMCU-KGEU

N9633L :: MMCU-KGEU

FLIGHT INFORMATION

Flight Status: Arrived
Operator: Privately registered:
United States
More flights under this callsign
Pilot: John P. (31881)
Aircraft: BEECH AIRCRAFT SUPER KING AIR 350
(B350)
More flights by this aircraft type
Origin: MMCU Gen Div P A Roberto Fierro
Mexico
Destination: KGEU Glendale Mun
United States
More flights between these airports :: More routes between these airports
Route: ONGIV3 ONGIV UJ46 SIKMA SSO SUNSS8
File this flight plan on PilotEdge
Remarks: Will attempt to get clearance at 122.2 ; otherwise will clear with Center @ US Border SSO.SUNSS8 arrival
Altitude:
(Current/Filed)
26,000ft
Speed:
(Current/Filed)
308kts
Departed: 04-Jan-21 07:17 PM
Arrived: 04-Jan-21 08:59 PM
Distance/Time
Traveled:
6238nm/1:42
Distance/Time
To Go:
Arrived

Flight Plot

Page will automatically refresh every two minutes.

Flight plan parsing failed; only flown route is shown


Map Options




Map Legend


Flown Route
Filed Route
Departure Airport
Arrival Airport
Navaid (VOR, NDB)
Fix

Horizontal Profiles

Position Reports

Time Latitude Longitude Heading Altitude Ground
Speed
04-Jan-21 19:10 28.696850 -105.964811 188 4451ft 21kts
04-Jan-21 19:11 28.693215 -105.965631 6 4465ft 0kts
04-Jan-21 19:12 28.693215 -105.965631 6 4465ft 0kts
04-Jan-21 19:14 28.693215 -105.965631 6 4465ft 0kts
04-Jan-21 19:15 28.693215 -105.965631 6 4465ft 0kts
04-Jan-21 19:16 28.694287 -105.965435 11 4460ft 35kts
04-Jan-21 19:17 28.726377 -105.959620 4 5370ft 150kts
04-Jan-21 19:18 28.768605 -105.953818 8 7843ft 156kts
04-Jan-21 19:19 28.812473 -105.946177 8 10291ft 162kts
04-Jan-21 19:20 28.857223 -105.938283 7 12590ft 174kts
04-Jan-21 19:21 28.915835 -105.930063 348 13985ft 209kts
04-Jan-21 19:22 28.947231 -105.968376 322 17109ft 166kts
04-Jan-21 19:23 28.982791 -106.003214 311 19257ft 173kts
04-Jan-21 19:24 29.017221 -106.043902 313 21328ft 184kts
04-Jan-21 19:25 29.053792 -106.086953 315 23416ft 193kts
04-Jan-21 19:26 29.093007 -106.132572 322 25100ft 222kts
04-Jan-21 19:27 29.152688 -106.167519 336 26175ft 265kts
04-Jan-21 19:28 29.227622 -106.203866 337 26302ft 315kts
04-Jan-21 19:28 29.297323 -106.237503 337 26305ft 333kts
04-Jan-21 19:30 29.397723 -106.286063 337 26306ft 336kts
04-Jan-21 19:31 29.483589 -106.327681 337 26258ft 335kts
04-Jan-21 19:31 29.554925 -106.362300 337 26252ft 335kts
04-Jan-21 19:32 29.640759 -106.404048 337 26253ft 334kts
04-Jan-21 19:33 29.726172 -106.445659 337 26254ft 334kts
04-Jan-21 19:34 29.811565 -106.487318 337 26256ft 333kts
04-Jan-21 19:35 29.896668 -106.528939 337 26259ft 332kts
04-Jan-21 19:36 29.981591 -106.570518 336 26254ft 332kts
04-Jan-21 19:37 30.066535 -106.612202 336 26260ft 332kts
04-Jan-21 19:38 30.142996 -106.669766 320 26254ft 331kts
04-Jan-21 19:39 30.209687 -106.743306 314 26254ft 331kts
04-Jan-21 19:40 30.273882 -106.819530 314 26252ft 331kts
04-Jan-21 19:41 30.337939 -106.895571 314 26253ft 330kts
04-Jan-21 19:42 30.402038 -106.971786 314 26255ft 330kts
04-Jan-21 19:43 30.465963 -107.047983 314 26252ft 330kts
04-Jan-21 19:44 30.529831 -107.124236 314 26253ft 330kts
04-Jan-21 19:45 30.593548 -107.200456 313 26255ft 330kts
04-Jan-21 19:46 30.657476 -107.277088 313 26255ft 330kts
04-Jan-21 19:47 30.721107 -107.353533 313 26255ft 330kts
04-Jan-21 19:48 30.784731 -107.430120 313 26256ft 330kts
04-Jan-21 19:49 30.826366 -107.480318 313 26258ft 330kts
04-Jan-21 19:50 30.889939 -107.557097 313 26259ft 330kts
04-Jan-21 19:51 30.953704 -107.634265 313 26260ft 329kts
04-Jan-21 19:52 31.017229 -107.711309 313 26265ft 329kts
04-Jan-21 19:53 31.080770 -107.788510 313 26264ft 329kts
04-Jan-21 19:54 31.144195 -107.865747 313 26264ft 329kts
04-Jan-21 19:55 31.207515 -107.943009 313 26264ft 329kts
04-Jan-21 19:56 31.270652 -108.020199 312 26266ft 328kts
04-Jan-21 19:57 31.333972 -108.097773 312 26254ft 330kts
04-Jan-21 19:58 31.397482 -108.175760 312 26252ft 329kts
04-Jan-21 19:59 31.443911 -108.232874 312 26251ft 327kts
04-Jan-21 20:00 31.503724 -108.306577 312 26250ft 295kts
04-Jan-21 20:14 32.302066 -109.397482 286 26287ft 317kts
04-Jan-21 20:15 32.325571 -109.493900 284 26286ft 293kts
04-Jan-21 20:16 32.347182 -109.582868 285 25033ft 288kts
04-Jan-21 20:17 32.370334 -109.678600 285 24329ft 295kts
04-Jan-21 20:18 32.392509 -109.770599 285 24287ft 286kts
04-Jan-21 20:19 32.414133 -109.860651 284 24282ft 283kts
04-Jan-21 20:20 32.435645 -109.950533 284 24279ft 285kts
04-Jan-21 20:21 32.457280 -110.041261 284 24277ft 287kts
04-Jan-21 20:22 32.478990 -110.132623 284 24277ft 287kts
04-Jan-21 20:23 32.500689 -110.224236 284 24268ft 288kts
04-Jan-21 20:24 32.522221 -110.315600 284 24270ft 289kts
04-Jan-21 20:25 32.543832 -110.407336 284 24265ft 291kts
04-Jan-21 20:26 32.565529 -110.500028 284 24262ft 287kts
04-Jan-21 20:27 32.586718 -110.590733 284 22765ft 284kts
04-Jan-21 20:28 32.607533 -110.680303 284 20657ft 280kts
04-Jan-21 20:29 32.628038 -110.768747 284 19185ft 278kts
04-Jan-21 20:30 32.649074 -110.859908 284 18172ft 288kts
04-Jan-21 20:31 32.670658 -110.951129 291 17206ft 286kts
04-Jan-21 20:32 32.713388 -111.030091 313 16188ft 284kts
04-Jan-21 20:33 32.766950 -111.098630 312 15171ft 282kts
04-Jan-21 20:34 32.819529 -111.166636 312 13644ft 276kts
04-Jan-21 20:35 32.870957 -111.233328 312 12096ft 271kts
04-Jan-21 20:36 32.921562 -111.299067 313 10229ft 266kts
04-Jan-21 20:37 32.969690 -111.361724 313 9090ft 242kts
04-Jan-21 20:38 33.014173 -111.419649 313 9006ft 240kts
04-Jan-21 20:39 33.056885 -111.480926 291 9004ft 242kts
04-Jan-21 20:40 33.066800 -111.560742 275 8916ft 245kts
04-Jan-21 20:41 33.073604 -111.641786 275 8882ft 251kts
04-Jan-21 20:42 33.080945 -111.727636 276 8877ft 267kts
04-Jan-21 20:43 33.088732 -111.816328 276 8877ft 269kts
04-Jan-21 20:44 33.096576 -111.905463 276 8877ft 271kts
04-Jan-21 20:45 33.104321 -111.994433 276 8988ft 270kts
04-Jan-21 20:46 33.112097 -112.083666 276 8743ft 272kts
04-Jan-21 20:47 33.138037 -112.165968 299 7083ft 265kts
04-Jan-21 20:48 33.167627 -112.241585 294 6071ft 230kts
04-Jan-21 20:49 33.192392 -112.309242 293 6007ft 219kts
04-Jan-21 20:50 33.216840 -112.376002 293 5907ft 220kts
04-Jan-21 20:51 33.245344 -112.438658 316 5656ft 211kts
04-Jan-21 20:53 33.295598 -112.428209 30 3655ft 194kts
04-Jan-21 20:54 33.339187 -112.402762 25 3009ft 156kts
04-Jan-21 20:55 33.381812 -112.378372 25 2977ft 174kts
04-Jan-21 20:56 33.425356 -112.353717 27 2973ft 172kts
04-Jan-21 20:57 33.468454 -112.328736 25 2158ft 172kts
04-Jan-21 20:58 33.502841 -112.308981 22 1390ft 119kts
04-Jan-21 20:59 33.524225 -112.296703 26 1061ft 23kts
04-Jan-21 21:00 33.528120 -112.296185 1 1064ft 10kts
04-Jan-21 21:01 33.528876 -112.296228 315 1063ft 0kts
04-Jan-21 21:02 0.000408 0.013975 0 5ft 0kts
04-Jan-21 21:03 0.000408 0.013975 0 5ft 0kts
04-Jan-21 21:04 0.000408 0.013975 0 5ft 0kts
04-Jan-21 21:05 0.000408 0.013975 0 5ft 0kts
04-Jan-21 21:06 0.000408 0.013975 0 5ft 0kts
04-Jan-21 21:07 0.000408 0.013975 0 5ft 0kts
04-Jan-21 21:07 0.000408 0.013975 0 5ft 0kts
04-Jan-21 21:09 0.000408 0.013975 0 5ft 0kts
04-Jan-21 21:10 0.000408 0.013975 0 5ft 0kts
04-Jan-21 21:10 0.000408 0.013975 0 5ft 0kts
04-Jan-21 21:12 0.000408 0.013975 0 5ft 0kts
04-Jan-21 21:12 0.000408 0.013975 0 5ft 0kts

Navigation Log

Ident Type
Flight plan parsing failed, navigation log unavailable